BRE weather

Bremen Airport
Bremen, Bremen, Germany

Public forecast

Using degrees Celsius for public forecast. Weather courtesy of forecast.io.

Current aviation weather report (METAR) for Bremen Airport

Retrieved 2019/12/14 23:20 UTC (18 minutes ago):

EDDW 142320Z 22012KT CAVOK 04/01 Q0996

Aviation forecast (TAF) for Bremen Airport

Retrieved 2019/12/14 18:27 UTC (5 hours ago):

TAF EDDW 141700Z 1418/1518 23014KT 9999 SCT020 PROB40 TEMPO 1418/1420 26020G30KT SHRA BKN013CB TEMPO 1418/1423 24015G25KT BECMG 1500/1502 19009KT TEMPO 1505/1508 RA PROB40 TEMPO 1506/1508 4000 BKN008 BECMG 1506/1508 24015G25KT TEMPO 1508/1514 25020G35KT BECMG 1514/1517 21011KT